sensor_id;sensor_type;location;lat;lon;timestamp;temperature;humidity
14985;DHT22;7588;62.368;25.902;2023-05-10T00:01:58;8.00;99.90
14985;DHT22;7588;62.368;25.902;2023-05-10T00:04:24;8.20;99.90
14985;DHT22;7588;62.368;25.902;2023-05-10T00:06:53;8.30;99.90
14985;DHT22;7588;62.368;25.902;2023-05-10T00:09:19;8.50;99.90
14985;DHT22;7588;62.368;25.902;2023-05-10T00:11:44;8.60;99.90
14985;DHT22;7588;62.368;25.902;2023-05-10T00:14:10;8.60;99.90
14985;DHT22;7588;62.368;25.902;2023-05-10T00:16:36;8.60;99.90
14985;DHT22;7588;62.368;25.902;2023-05-10T00:19:02;8.60;99.60
14985;DHT22;7588;62.368;25.902;2023-05-10T00:21:27;8.60;99.90
14985;DHT22;7588;62.368;25.902;2023-05-10T00:23:54;8.60;99.90
14985;DHT22;7588;62.368;25.902;2023-05-10T00:26:20;8.40;99.90
14985;DHT22;7588;62.368;25.902;2023-05-10T00:28:45;8.40;99.90
14985;DHT22;7588;62.368;25.902;2023-05-10T00:31:11;8.40;99.90
14985;DHT22;7588;62.368;25.902;2023-05-10T00:33:37;8.30;99.90
14985;DHT22;7588;62.368;25.902;2023-05-10T00:36:03;8.20;99.90
14985;DHT22;7588;62.368;25.902;2023-05-10T00:38:28;8.10;99.90
14985;DHT22;7588;62.368;25.902;2023-05-10T00:40:54;8.20;99.90
14985;DHT22;7588;62.368;25.902;2023-05-10T00:43:20;8.20;99.60
14985;DHT22;7588;62.368;25.902;2023-05-10T00:45:46;8.20;99.90
14985;DHT22;7588;62.368;25.902;2023-05-10T00:48:12;8.20;99.90
14985;DHT22;7588;62.368;25.902;2023-05-10T00:50:38;8.20;99.40
14985;DHT22;7588;62.368;25.902;2023-05-10T00:53:05;8.30;99.20
14985;DHT22;7588;62.368;25.902;2023-05-10T00:55:31;8.30;99.10
14985;DHT22;7588;62.368;25.902;2023-05-10T00:57:57;8.30;99.80
14985;DHT22;7588;62.368;25.902;2023-05-10T01:00:22;8.30;99.60
14985;DHT22;7588;62.368;25.902;2023-05-10T01:02:48;8.30;99.10
14985;DHT22;7588;62.368;25.902;2023-05-10T01:05:14;8.40;97.90
14985;DHT22;7588;62.368;25.902;2023-05-10T01:07:40;8.50;97.80
14985;DHT22;7588;62.368;25.902;2023-05-10T01:10:07;8.50;98.30
14985;DHT22;7588;62.368;25.902;2023-05-10T01:12:39;8.40;98.20
14985;DHT22;7588;62.368;25.902;2023-05-10T01:15:07;8.30;98.90
14985;DHT22;7588;62.368;25.902;2023-05-10T01:17:35;8.20;99.10
14985;DHT22;7588;62.368;25.902;2023-05-10T01:20:03;8.00;99.60
14985;DHT22;7588;62.368;25.902;2023-05-10T01:33:59;8.00;98.70
14985;DHT22;7588;62.368;25.902;2023-05-10T01:37:06;7.90;99.00
14985;DHT22;7588;62.368;25.902;2023-05-10T01:42:25;7.70;99.10
14985;DHT22;7588;62.368;25.902;2023-05-10T01:44:58;7.40;99.80
14985;DHT22;7588;62.368;25.902;2023-05-10T01:50:15;7.10;99.90
14985;DHT22;7588;62.368;25.902;2023-05-10T01:52:44;7.00;99.90
14985;DHT22;7588;62.368;25.902;2023-05-10T01:55:15;6.90;99.90
14985;DHT22;7588;62.368;25.902;2023-05-10T01:57:44;6.70;99.90
14985;DHT22;7588;62.368;25.902;2023-05-10T02:00:12;6.60;99.90
14985;DHT22;7588;62.368;25.902;2023-05-10T02:02:40;6.40;99.90
14985;DHT22;7588;62.368;25.902;2023-05-10T02:05:08;6.30;99.90
14985;DHT22;7588;62.368;25.902;2023-05-10T02:07:36;6.30;99.90
14985;DHT22;7588;62.368;25.902;2023-05-10T02:10:05;6.20;99.90
14985;DHT22;7588;62.368;25.902;2023-05-10T02:12:35;6.10;99.90
14985;DHT22;7588;62.368;25.902;2023-05-10T02:15:04;6.10;99.90
14985;DHT22;7588;62.368;25.902;2023-05-10T02:17:32;6.10;99.90
14985;DHT22;7588;62.368;25.902;2023-05-10T02:19:59;6.10;99.90
14985;DHT22;7588;62.368;25.902;2023-05-10T02:22:27;6.00;99.90
14985;DHT22;7588;62.368;25.902;2023-05-10T02:24:57;6.00;99.90
14985;DHT22;7588;62.368;25.902;2023-05-10T02:27:24;6.00;99.90
14985;DHT22;7588;62.368;25.902;2023-05-10T02:29:51;5.90;99.90
14985;DHT22;7588;62.368;25.902;2023-05-10T02:32:18;5.90;99.90
14985;DHT22;7588;62.368;25.902;2023-05-10T02:34:45;5.90;99.90
14985;DHT22;7588;62.368;25.902;2023-05-10T02:37:16;5.90;99.90
14985;DHT22;7588;62.368;25.902;2023-05-10T02:39:44;5.90;99.90
14985;DHT22;7588;62.368;25.902;2023-05-10T02:42:17;5.90;99.90
14985;DHT22;7588;62.368;25.902;2023-05-10T02:44:45;5.90;99.90
14985;DHT22;7588;62.368;25.902;2023-05-10T02:47:11;5.80;99.90
14985;DHT22;7588;62.368;25.902;2023-05-10T02:49:37;5.80;99.90
14985;DHT22;7588;62.368;25.902;2023-05-10T02:52:05;5.80;99.90
14985;DHT22;7588;62.368;25.902;2023-05-10T02:54:41;5.80;99.90
14985;DHT22;7588;62.368;25.902;2023-05-10T02:57:14;5.80;99.90
14985;DHT22;7588;62.368;25.902;2023-05-10T02:59:41;5.80;99.90
14985;DHT22;7588;62.368;25.902;2023-05-10T03:02:09;5.90;99.90
14985;DHT22;7588;62.368;25.902;2023-05-10T03:04:35;6.00;99.90
14985;DHT22;7588;62.368;25.902;2023-05-10T03:07:01;6.10;99.90
14985;DHT22;7588;62.368;25.902;2023-05-10T03:09:27;6.20;99.90
14985;DHT22;7588;62.368;25.902;2023-05-10T03:14:57;6.30;99.90
14985;DHT22;7588;62.368;25.902;2023-05-10T03:17:40;6.50;99.90
14985;DHT22;7588;62.368;25.902;2023-05-10T03:20:09;6.60;99.90
14985;DHT22;7588;62.368;25.902;2023-05-10T03:22:45;6.60;99.90
14985;DHT22;7588;62.368;25.902;2023-05-10T03:25:12;6.50;99.90
14985;DHT22;7588;62.368;25.902;2023-05-10T03:27:41;6.60;99.90
14985;DHT22;7588;62.368;25.902;2023-05-10T03:30:10;6.70;99.90
14985;DHT22;7588;62.368;25.902;2023-05-10T03:32:36;6.80;99.90
14985;DHT22;7588;62.368;25.902;2023-05-10T03:35:09;6.80;99.90
14985;DHT22;7588;62.368;25.902;2023-05-10T03:37:35;6.80;99.90
14985;DHT22;7588;62.368;25.902;2023-05-10T03:40:02;6.80;99.90
14985;DHT22;7588;62.368;25.902;2023-05-10T03:42:27;6.90;99.90
14985;DHT22;7588;62.368;25.902;2023-05-10T03:44:53;7.00;99.90
14985;DHT22;7588;62.368;25.902;2023-05-10T03:47:19;7.10;99.90
14985;DHT22;7588;62.368;25.902;2023-05-10T03:49:45;7.20;99.90
14985;DHT22;7588;62.368;25.902;2023-05-10T03:52:11;7.30;99.90
14985;DHT22;7588;62.368;25.902;2023-05-10T03:54:37;7.40;99.90
14985;DHT22;7588;62.368;25.902;2023-05-10T03:57:03;7.50;99.90
14985;DHT22;7588;62.368;25.902;2023-05-10T03:59:29;7.50;99.90
14985;DHT22;7588;62.368;25.902;2023-05-10T04:01:55;7.70;99.90
14985;DHT22;7588;62.368;25.902;2023-05-10T04:04:21;7.90;99.90
14985;DHT22;7588;62.368;25.902;2023-05-10T04:06:47;8.20;99.90
14985;DHT22;7588;62.368;25.902;2023-05-10T04:09:13;8.40;99.90
14985;DHT22;7588;62.368;25.902;2023-05-10T04:11:39;8.60;99.50
14985;DHT22;7588;62.368;25.902;2023-05-10T04:14:04;8.70;98.70
14985;DHT22;7588;62.368;25.902;2023-05-10T04:16:30;8.90;99.20
14985;DHT22;7588;62.368;25.902;2023-05-10T04:18:56;9.20;97.20
14985;DHT22;7588;62.368;25.902;2023-05-10T04:21:21;9.50;97.00
14985;DHT22;7588;62.368;25.902;2023-05-10T04:23:47;9.90;96.90
14985;DHT22;7588;62.368;25.902;2023-05-10T04:26:13;10.40;95.80
14985;DHT22;7588;62.368;25.902;2023-05-10T04:28:39;10.70;94.00
14985;DHT22;7588;62.368;25.902;2023-05-10T04:31:09;10.90;93.30
14985;DHT22;7588;62.368;25.902;2023-05-10T04:33:37;11.00;93.30
14985;DHT22;7588;62.368;25.902;2023-05-10T04:36:03;10.80;92.90
14985;DHT22;7588;62.368;25.902;2023-05-10T04:38:29;10.60;92.20
14985;DHT22;7588;62.368;25.902;2023-05-10T04:41:03;10.50;94.10
14985;DHT22;7588;62.368;25.902;2023-05-10T04:43:28;10.50;92.90
14985;DHT22;7588;62.368;25.902;2023-05-10T04:45:56;10.50;92.70
14985;DHT22;7588;62.368;25.902;2023-05-10T04:48:22;10.50;93.00
14985;DHT22;7588;62.368;25.902;2023-05-10T04:50:47;10.60;92.10
14985;DHT22;7588;62.368;25.902;2023-05-10T04:53:13;10.70;92.40
14985;DHT22;7588;62.368;25.902;2023-05-10T04:55:39;10.90;91.80
14985;DHT22;7588;62.368;25.902;2023-05-10T04:58:05;11.00;91.30
14985;DHT22;7588;62.368;25.902;2023-05-10T05:00:30;11.10;91.40
14985;DHT22;7588;62.368;25.902;2023-05-10T05:02:56;11.30;90.90
14985;DHT22;7588;62.368;25.902;2023-05-10T05:05:21;11.60;90.80
14985;DHT22;7588;62.368;25.902;2023-05-10T05:07:47;11.90;90.80
14985;DHT22;7588;62.368;25.902;2023-05-10T05:10:13;11.70;88.30
14985;DHT22;7588;62.368;25.902;2023-05-10T05:12:38;11.50;89.90
14985;DHT22;7588;62.368;25.902;2023-05-10T05:15:04;11.50;90.80
14985;DHT22;7588;62.368;25.902;2023-05-10T05:17:30;11.40;90.30
14985;DHT22;7588;62.368;25.902;2023-05-10T05:19:56;11.70;90.20
14985;DHT22;7588;62.368;25.902;2023-05-10T05:22:22;11.80;90.60
14985;DHT22;7588;62.368;25.902;2023-05-10T05:24:56;11.90;89.70
14985;DHT22;7588;62.368;25.902;2023-05-10T05:27:24;12.00;88.70
14985;DHT22;7588;62.368;25.902;2023-05-10T05:29:55;12.20;90.20
14985;DHT22;7588;62.368;25.902;2023-05-10T05:32:21;12.60;86.40
14985;DHT22;7588;62.368;25.902;2023-05-10T05:34:47;12.70;86.20
14985;DHT22;7588;62.368;25.902;2023-05-10T05:37:14;12.70;86.50
14985;DHT22;7588;62.368;25.902;2023-05-10T05:39:40;12.70;89.50
14985;DHT22;7588;62.368;25.902;2023-05-10T05:42:05;12.90;84.50
14985;DHT22;7588;62.368;25.902;2023-05-10T05:44:31;12.90;84.60
14985;DHT22;7588;62.368;25.902;2023-05-10T05:46:57;13.20;83.30
14985;DHT22;7588;62.368;25.902;2023-05-10T05:49:22;13.50;80.70
14985;DHT22;7588;62.368;25.902;2023-05-10T05:51:48;13.50;85.90
14985;DHT22;7588;62.368;25.902;2023-05-10T05:54:15;13.70;83.50
14985;DHT22;7588;62.368;25.902;2023-05-10T05:56:41;14.00;82.10
14985;DHT22;7588;62.368;25.902;2023-05-10T05:59:07;14.10;81.80
14985;DHT22;7588;62.368;25.902;2023-05-10T06:01:33;14.30;83.10
14985;DHT22;7588;62.368;25.902;2023-05-10T06:03:59;14.20;78.90
14985;DHT22;7588;62.368;25.902;2023-05-10T06:06:24;14.20;80.00
14985;DHT22;7588;62.368;25.902;2023-05-10T06:08:50;14.40;80.10
14985;DHT22;7588;62.368;25.902;2023-05-10T06:11:16;14.30;81.40
14985;DHT22;7588;62.368;25.902;2023-05-10T06:13:42;14.40;79.10
14985;DHT22;7588;62.368;25.902;2023-05-10T06:16:08;14.40;78.30
14985;DHT22;7588;62.368;25.902;2023-05-10T06:18:35;14.40;80.30
14985;DHT22;7588;62.368;25.902;2023-05-10T06:21:01;14.10;79.00
14985;DHT22;7588;62.368;25.902;2023-05-10T06:23:27;13.90;84.10
14985;DHT22;7588;62.368;25.902;2023-05-10T06:25:52;14.00;81.80
14985;DHT22;7588;62.368;25.902;2023-05-10T06:28:18;14.00;84.10
14985;DHT22;7588;62.368;25.902;2023-05-10T06:30:44;14.20;79.50
14985;DHT22;7588;62.368;25.902;2023-05-10T06:33:09;14.70;83.30
14985;DHT22;7588;62.368;25.902;2023-05-10T06:35:35;15.30;77.10
14985;DHT22;7588;62.368;25.902;2023-05-10T06:38:02;16.00;75.90
14985;DHT22;7588;62.368;25.902;2023-05-10T06:40:27;16.50;75.90
14985;DHT22;7588;62.368;25.902;2023-05-10T06:42:53;16.50;71.90
14985;DHT22;7588;62.368;25.902;2023-05-10T06:45:19;16.40;74.60
14985;DHT22;7588;62.368;25.902;2023-05-10T06:47:44;16.20;72.80
14985;DHT22;7588;62.368;25.902;2023-05-10T06:50:11;16.20;74.80
14985;DHT22;7588;62.368;25.902;2023-05-10T06:52:37;16.20;74.60
14985;DHT22;7588;62.368;25.902;2023-05-10T06:55:03;16.50;72.00
14985;DHT22;7588;62.368;25.902;2023-05-10T06:57:30;16.80;71.00
14985;DHT22;7588;62.368;25.902;2023-05-10T06:59:56;17.60;70.10
14985;DHT22;7588;62.368;25.902;2023-05-10T07:02:22;17.70;74.20
14985;DHT22;7588;62.368;25.902;2023-05-10T07:04:48;17.10;69.60
14985;DHT22;7588;62.368;25.902;2023-05-10T07:07:14;16.90;69.20
14985;DHT22;7588;62.368;25.902;2023-05-10T07:09:40;16.30;69.70
14985;DHT22;7588;62.368;25.902;2023-05-10T07:12:06;16.00;70.70
14985;DHT22;7588;62.368;25.902;2023-05-10T07:14:32;16.00;71.40
14985;DHT22;7588;62.368;25.902;2023-05-10T07:16:57;16.00;71.60
14985;DHT22;7588;62.368;25.902;2023-05-10T07:19:23;16.10;72.40
14985;DHT22;7588;62.368;25.902;2023-05-10T07:21:49;16.10;71.10
14985;DHT22;7588;62.368;25.902;2023-05-10T07:24:15;16.20;72.60
14985;DHT22;7588;62.368;25.902;2023-05-10T07:26:41;16.40;73.50
14985;DHT22;7588;62.368;25.902;2023-05-10T07:29:06;16.60;75.00
14985;DHT22;7588;62.368;25.902;2023-05-10T07:31:32;17.10;74.90
14985;DHT22;7588;62.368;25.902;2023-05-10T07:33:58;17.70;72.50
14985;DHT22;7588;62.368;25.902;2023-05-10T07:36:23;18.10;73.60
14985;DHT22;7588;62.368;25.902;2023-05-10T07:38:49;18.40;67.30
14985;DHT22;7588;62.368;25.902;2023-05-10T07:41:15;18.40;68.00
14985;DHT22;7588;62.368;25.902;2023-05-10T07:43:41;18.20;72.70
14985;DHT22;7588;62.368;25.902;2023-05-10T07:46:06;19.00;72.20
14985;DHT22;7588;62.368;25.902;2023-05-10T07:48:32;19.20;67.50
14985;DHT22;7588;62.368;25.902;2023-05-10T07:50:58;19.40;67.80
14985;DHT22;7588;62.368;25.902;2023-05-10T07:53:26;19.30;64.70
14985;DHT22;7588;62.368;25.902;2023-05-10T07:55:54;19.00;64.20
14985;DHT22;7588;62.368;25.902;2023-05-10T07:58:22;18.60;64.10
14985;DHT22;7588;62.368;25.902;2023-05-10T08:00:47;18.00;64.80
14985;DHT22;7588;62.368;25.902;2023-05-10T08:03:14;17.80;65.20
14985;DHT22;7588;62.368;25.902;2023-05-10T08:05:40;17.90;68.00
14985;DHT22;7588;62.368;25.902;2023-05-10T08:08:06;17.80;62.20
14985;DHT22;7588;62.368;25.902;2023-05-10T08:10:31;17.80;63.70
14985;DHT22;7588;62.368;25.902;2023-05-10T08:12:57;17.90;66.80
14985;DHT22;7588;62.368;25.902;2023-05-10T08:15:24;18.20;65.80
14985;DHT22;7588;62.368;25.902;2023-05-10T08:17:51;18.20;63.70
14985;DHT22;7588;62.368;25.902;2023-05-10T08:20:17;18.10;66.90
14985;DHT22;7588;62.368;25.902;2023-05-10T08:22:45;17.90;65.50
14985;DHT22;7588;62.368;25.902;2023-05-10T08:25:11;18.20;66.50
14985;DHT22;7588;62.368;25.902;2023-05-10T08:27:36;18.00;60.60
14985;DHT22;7588;62.368;25.902;2023-05-10T08:30:02;17.70;65.70
14985;DHT22;7588;62.368;25.902;2023-05-10T08:32:28;17.50;68.50
14985;DHT22;7588;62.368;25.902;2023-05-10T08:34:54;17.90;64.10
14985;DHT22;7588;62.368;25.902;2023-05-10T08:37:20;18.00;60.40
14985;DHT22;7588;62.368;25.902;2023-05-10T08:39:46;17.70;61.50
14985;DHT22;7588;62.368;25.902;2023-05-10T08:42:16;17.70;64.70
14985;DHT22;7588;62.368;25.902;2023-05-10T08:44:44;17.70;64.40
14985;DHT22;7588;62.368;25.902;2023-05-10T08:47:11;17.50;65.40
14985;DHT22;7588;62.368;25.902;2023-05-10T08:49:38;17.30;64.50
14985;DHT22;7588;62.368;25.902;2023-05-10T08:52:05;17.30;65.80
14985;DHT22;7588;62.368;25.902;2023-05-10T08:54:33;17.20;62.20
14985;DHT22;7588;62.368;25.902;2023-05-10T08:57:00;17.20;68.70
14985;DHT22;7588;62.368;25.902;2023-05-10T08:59:25;17.20;66.30
14985;DHT22;7588;62.368;25.902;2023-05-10T09:01:52;17.20;65.80
14985;DHT22;7588;62.368;25.902;2023-05-10T09:04:20;17.10;63.00
14985;DHT22;7588;62.368;25.902;2023-05-10T09:06:46;17.00;65.90
14985;DHT22;7588;62.368;25.902;2023-05-10T09:09:12;16.80;64.30
14985;DHT22;7588;62.368;25.902;2023-05-10T09:11:38;16.70;63.10
14985;DHT22;7588;62.368;25.902;2023-05-10T09:14:04;16.60;65.10
14985;DHT22;7588;62.368;25.902;2023-05-10T09:16:30;16.70;63.50
14985;DHT22;7588;62.368;25.902;2023-05-10T09:18:56;16.60;68.60
14985;DHT22;7588;62.368;25.902;2023-05-10T09:21:21;16.40;65.00
14985;DHT22;7588;62.368;25.902;2023-05-10T09:23:48;16.20;66.50
14985;DHT22;7588;62.368;25.902;2023-05-10T09:26:15;16.20;65.80
14985;DHT22;7588;62.368;25.902;2023-05-10T09:28:58;16.10;66.10
14985;DHT22;7588;62.368;25.902;2023-05-10T09:31:24;16.10;67.10
14985;DHT22;7588;62.368;25.902;2023-05-10T09:34:08;16.20;67.30
14985;DHT22;7588;62.368;25.902;2023-05-10T09:36:33;16.10;66.70
14985;DHT22;7588;62.368;25.902;2023-05-10T09:38:59;16.10;68.30
14985;DHT22;7588;62.368;25.902;2023-05-10T09:41:25;16.00;68.10
14985;DHT22;7588;62.368;25.902;2023-05-10T09:43:55;15.90;67.30
14985;DHT22;7588;62.368;25.902;2023-05-10T09:46:22;16.00;67.30
14985;DHT22;7588;62.368;25.902;2023-05-10T09:48:48;16.10;66.20
14985;DHT22;7588;62.368;25.902;2023-05-10T09:51:24;16.20;66.30
14985;DHT22;7588;62.368;25.902;2023-05-10T09:54:13;16.30;67.70
14985;DHT22;7588;62.368;25.902;2023-05-10T09:56:40;16.40;69.20
14985;DHT22;7588;62.368;25.902;2023-05-10T09:59:09;16.50;67.80
14985;DHT22;7588;62.368;25.902;2023-05-10T10:01:35;16.50;67.80
14985;DHT22;7588;62.368;25.902;2023-05-10T10:04:09;16.50;68.90
14985;DHT22;7588;62.368;25.902;2023-05-10T10:06:38;16.50;67.20
14985;DHT22;7588;62.368;25.902;2023-05-10T10:09:05;16.50;65.20
14985;DHT22;7588;62.368;25.902;2023-05-10T10:11:32;16.50;67.20
14985;DHT22;7588;62.368;25.902;2023-05-10T10:13:58;16.70;68.40
14985;DHT22;7588;62.368;25.902;2023-05-10T10:16:24;16.70;65.00
14985;DHT22;7588;62.368;25.902;2023-05-10T10:18:50;16.80;66.00
14985;DHT22;7588;62.368;25.902;2023-05-10T10:21:16;16.90;68.20
14985;DHT22;7588;62.368;25.902;2023-05-10T10:23:42;16.90;68.10
14985;DHT22;7588;62.368;25.902;2023-05-10T10:26:10;16.80;65.60
14985;DHT22;7588;62.368;25.902;2023-05-10T10:28:44;16.80;65.40
14985;DHT22;7588;62.368;25.902;2023-05-10T10:34:05;16.70;66.00
14985;DHT22;7588;62.368;25.902;2023-05-10T10:36:54;16.80;67.50
14985;DHT22;7588;62.368;25.902;2023-05-10T10:39:20;16.90;64.60
14985;DHT22;7588;62.368;25.902;2023-05-10T10:41:50;17.00;65.70
14985;DHT22;7588;62.368;25.902;2023-05-10T10:49:48;17.20;65.80
14985;DHT22;7588;62.368;25.902;2023-05-10T10:57:35;17.10;66.00
14985;DHT22;7588;62.368;25.902;2023-05-10T11:03:08;17.20;63.60
14985;DHT22;7588;62.368;25.902;2023-05-10T11:08:29;17.20;68.10
14985;DHT22;7588;62.368;25.902;2023-05-10T11:13:41;17.30;65.70
14985;DHT22;7588;62.368;25.902;2023-05-10T11:16:11;17.40;66.10
14985;DHT22;7588;62.368;25.902;2023-05-10T11:18:37;17.60;66.20
14985;DHT22;7588;62.368;25.902;2023-05-10T11:21:03;17.70;64.10
14985;DHT22;7588;62.368;25.902;2023-05-10T11:26:14;17.70;64.90
14985;DHT22;7588;62.368;25.902;2023-05-10T11:28:49;17.80;66.00
14985;DHT22;7588;62.368;25.902;2023-05-10T11:31:16;17.70;63.70
14985;DHT22;7588;62.368;25.902;2023-05-10T11:33:53;17.80;67.00
14985;DHT22;7588;62.368;25.902;2023-05-10T11:36:32;17.90;64.80
14985;DHT22;7588;62.368;25.902;2023-05-10T11:38:58;17.80;62.90
14985;DHT22;7588;62.368;25.902;2023-05-10T11:41:24;17.70;63.90
14985;DHT22;7588;62.368;25.902;2023-05-10T11:43:52;17.90;66.10
14985;DHT22;7588;62.368;25.902;2023-05-10T11:46:20;18.10;65.00
14985;DHT22;7588;62.368;25.902;2023-05-10T11:48:50;18.00;66.80
14985;DHT22;7588;62.368;25.902;2023-05-10T11:51:21;18.00;64.50
14985;DHT22;7588;62.368;25.902;2023-05-10T11:53:46;18.00;64.00
14985;DHT22;7588;62.368;25.902;2023-05-10T11:56:12;18.10;67.00
14985;DHT22;7588;62.368;25.902;2023-05-10T11:58:38;18.30;63.70
14985;DHT22;7588;62.368;25.902;2023-05-10T12:01:06;18.50;63.40
14985;DHT22;7588;62.368;25.902;2023-05-10T12:03:32;18.50;63.30
14985;DHT22;7588;62.368;25.902;2023-05-10T12:05:59;18.40;61.90
14985;DHT22;7588;62.368;25.902;2023-05-10T12:08:27;18.20;64.10
14985;DHT22;7588;62.368;25.902;2023-05-10T12:11:05;18.30;62.90
14985;DHT22;7588;62.368;25.902;2023-05-10T12:13:31;18.20;64.40
14985;DHT22;7588;62.368;25.902;2023-05-10T12:15:58;18.20;67.50
14985;DHT22;7588;62.368;25.902;2023-05-10T12:18:24;18.30;64.70
14985;DHT22;7588;62.368;25.902;2023-05-10T12:20:53;18.40;63.90
14985;DHT22;7588;62.368;25.902;2023-05-10T12:23:20;18.40;66.20
14985;DHT22;7588;62.368;25.902;2023-05-10T12:25:46;18.40;63.60
14985;DHT22;7588;62.368;25.902;2023-05-10T12:28:11;18.40;64.80
14985;DHT22;7588;62.368;25.902;2023-05-10T12:30:38;18.50;65.40
14985;DHT22;7588;62.368;25.902;2023-05-10T12:33:11;18.50;67.30
14985;DHT22;7588;62.368;25.902;2023-05-10T12:35:50;18.50;65.10
14985;DHT22;7588;62.368;25.902;2023-05-10T12:40:50;18.60;66.30
14985;DHT22;7588;62.368;25.902;2023-05-10T12:43:16;18.70;66.00
14985;DHT22;7588;62.368;25.902;2023-05-10T12:45:42;19.00;62.30
14985;DHT22;7588;62.368;25.902;2023-05-10T12:48:07;19.10;65.60
14985;DHT22;7588;62.368;25.902;2023-05-10T12:50:33;19.20;63.40
14985;DHT22;7588;62.368;25.902;2023-05-10T12:52:58;19.20;64.90
14985;DHT22;7588;62.368;25.902;2023-05-10T12:55:24;19.20;67.90
14985;DHT22;7588;62.368;25.902;2023-05-10T12:57:50;19.40;66.10
14985;DHT22;7588;62.368;25.902;2023-05-10T13:00:16;19.30;60.20
14985;DHT22;7588;62.368;25.902;2023-05-10T13:02:41;19.30;64.30
14985;DHT22;7588;62.368;25.902;2023-05-10T13:05:07;19.40;62.70
14985;DHT22;7588;62.368;25.902;2023-05-10T13:07:33;19.70;64.10
14985;DHT22;7588;62.368;25.902;2023-05-10T13:09:59;19.70;63.70
14985;DHT22;7588;62.368;25.902;2023-05-10T13:12:24;19.60;65.10
14985;DHT22;7588;62.368;25.902;2023-05-10T13:14:50;19.60;63.30
14985;DHT22;7588;62.368;25.902;2023-05-10T13:17:16;19.50;60.90
14985;DHT22;7588;62.368;25.902;2023-05-10T13:19:41;19.40;63.60
14985;DHT22;7588;62.368;25.902;2023-05-10T13:22:07;19.50;63.30
14985;DHT22;7588;62.368;25.902;2023-05-10T13:24:33;19.60;60.90
14985;DHT22;7588;62.368;25.902;2023-05-10T13:26:58;19.60;64.90
14985;DHT22;7588;62.368;25.902;2023-05-10T13:29:24;19.70;61.50
14985;DHT22;7588;62.368;25.902;2023-05-10T13:31:50;19.60;62.90
14985;DHT22;7588;62.368;25.902;2023-05-10T13:34:15;19.40;62.70
14985;DHT22;7588;62.368;25.902;2023-05-10T13:36:41;19.30;62.30
14985;DHT22;7588;62.368;25.902;2023-05-10T13:39:07;19.30;62.90
14985;DHT22;7588;62.368;25.902;2023-05-10T13:41:33;19.40;66.70
14985;DHT22;7588;62.368;25.902;2023-05-10T13:43:59;19.20;63.20
14985;DHT22;7588;62.368;25.902;2023-05-10T13:46:25;19.30;62.30
14985;DHT22;7588;62.368;25.902;2023-05-10T13:48:50;19.30;63.10
14985;DHT22;7588;62.368;25.902;2023-05-10T13:51:16;19.30;62.10
14985;DHT22;7588;62.368;25.902;2023-05-10T13:53:42;19.30;63.60
14985;DHT22;7588;62.368;25.902;2023-05-10T13:56:08;19.30;64.50
14985;DHT22;7588;62.368;25.902;2023-05-10T13:58:33;19.30;61.80
14985;DHT22;7588;62.368;25.902;2023-05-10T14:01:00;19.20;61.20
14985;DHT22;7588;62.368;25.902;2023-05-10T14:03:26;19.20;62.30
14985;DHT22;7588;62.368;25.902;2023-05-10T14:05:51;19.20;61.70
14985;DHT22;7588;62.368;25.902;2023-05-10T14:08:17;19.20;62.50
14985;DHT22;7588;62.368;25.902;2023-05-10T14:10:43;19.10;63.50
14985;DHT22;7588;62.368;25.902;2023-05-10T14:13:08;19.20;62.00
14985;DHT22;7588;62.368;25.902;2023-05-10T14:15:34;19.10;61.70
14985;DHT22;7588;62.368;25.902;2023-05-10T14:18:00;19.00;61.20
14985;DHT22;7588;62.368;25.902;2023-05-10T14:20:25;18.80;63.70
14985;DHT22;7588;62.368;25.902;2023-05-10T14:22:51;18.90;64.60
14985;DHT22;7588;62.368;25.902;2023-05-10T14:25:17;18.90;65.20
14985;DHT22;7588;62.368;25.902;2023-05-10T14:27:43;18.90;61.30
14985;DHT22;7588;62.368;25.902;2023-05-10T14:30:09;18.90;60.90
14985;DHT22;7588;62.368;25.902;2023-05-10T14:32:35;18.80;62.60
14985;DHT22;7588;62.368;25.902;2023-05-10T14:35:02;18.80;62.50
14985;DHT22;7588;62.368;25.902;2023-05-10T14:37:28;18.80;63.50
14985;DHT22;7588;62.368;25.902;2023-05-10T14:39:54;18.80;64.20
14985;DHT22;7588;62.368;25.902;2023-05-10T14:42:19;18.80;62.70
14985;DHT22;7588;62.368;25.902;2023-05-10T14:44:45;18.80;59.60
14985;DHT22;7588;62.368;25.902;2023-05-10T14:47:11;18.70;65.40
14985;DHT22;7588;62.368;25.902;2023-05-10T14:49:37;18.70;61.00
14985;DHT22;7588;62.368;25.902;2023-05-10T14:52:02;18.80;62.10
14985;DHT22;7588;62.368;25.902;2023-05-10T14:54:28;18.80;62.30
14985;DHT22;7588;62.368;25.902;2023-05-10T14:56:54;19.00;62.80
14985;DHT22;7588;62.368;25.902;2023-05-10T14:59:20;19.10;59.90
14985;DHT22;7588;62.368;25.902;2023-05-10T15:01:46;19.10;61.50
14985;DHT22;7588;62.368;25.902;2023-05-10T15:04:11;19.20;63.30
14985;DHT22;7588;62.368;25.902;2023-05-10T15:06:38;19.30;61.70
14985;DHT22;7588;62.368;25.902;2023-05-10T15:09:04;19.30;60.50
14985;DHT22;7588;62.368;25.902;2023-05-10T15:11:30;19.30;63.70
14985;DHT22;7588;62.368;25.902;2023-05-10T15:13:55;19.30;62.00
14985;DHT22;7588;62.368;25.902;2023-05-10T15:16:21;19.20;63.20
14985;DHT22;7588;62.368;25.902;2023-05-10T15:18:47;19.20;63.60
14985;DHT22;7588;62.368;25.902;2023-05-10T15:21:13;19.30;61.00
14985;DHT22;7588;62.368;25.902;2023-05-10T15:23:39;19.50;62.90
14985;DHT22;7588;62.368;25.902;2023-05-10T15:26:04;19.60;61.60
14985;DHT22;7588;62.368;25.902;2023-05-10T15:28:30;19.60;60.80
14985;DHT22;7588;62.368;25.902;2023-05-10T15:30:56;19.50;61.20
14985;DHT22;7588;62.368;25.902;2023-05-10T15:33:22;19.40;61.30
14985;DHT22;7588;62.368;25.902;2023-05-10T15:35:48;19.40;60.50
14985;DHT22;7588;62.368;25.902;2023-05-10T15:38:14;19.30;63.20
14985;DHT22;7588;62.368;25.902;2023-05-10T15:40:40;19.20;63.10
14985;DHT22;7588;62.368;25.902;2023-05-10T15:43:06;19.10;59.50
14985;DHT22;7588;62.368;25.902;2023-05-10T15:45:31;19.10;61.30
14985;DHT22;7588;62.368;25.902;2023-05-10T15:47:58;19.10;61.60
14985;DHT22;7588;62.368;25.902;2023-05-10T15:50:24;19.10;61.50
14985;DHT22;7588;62.368;25.902;2023-05-10T15:52:50;19.10;61.70
14985;DHT22;7588;62.368;25.902;2023-05-10T15:55:16;19.10;61.00
14985;DHT22;7588;62.368;25.902;2023-05-10T15:57:42;19.10;59.70
14985;DHT22;7588;62.368;25.902;2023-05-10T16:00:09;19.10;61.50
14985;DHT22;7588;62.368;25.902;2023-05-10T16:02:35;19.00;59.60
14985;DHT22;7588;62.368;25.902;2023-05-10T16:05:02;18.90;60.90
14985;DHT22;7588;62.368;25.902;2023-05-10T16:07:28;18.90;62.50
14985;DHT22;7588;62.368;25.902;2023-05-10T16:09:53;18.90;64.20
14985;DHT22;7588;62.368;25.902;2023-05-10T16:12:19;18.90;62.90
14985;DHT22;7588;62.368;25.902;2023-05-10T16:14:45;18.80;61.40
14985;DHT22;7588;62.368;25.902;2023-05-10T16:17:11;18.80;63.00
14985;DHT22;7588;62.368;25.902;2023-05-10T16:19:37;18.70;63.60
14985;DHT22;7588;62.368;25.902;2023-05-10T16:22:03;18.70;62.40